Terminal Aerodrome Forecast
Issued by NWS Blacksburg, VA

Home | Current Version | Previous Version | Text Only | Print | Product List | Glossary On
Versions: 1 2 3 4 5 6 7 8 9 10 11 12 13 14 15 16 17 18 19 20 21 22 23 24 25 26
991
FTUS41 KRNK 241136
TAFROA
TAF
KROA 241136Z 2412/2512 15005KT P6SM BKN090 OVC250
     FM241800 20008G16KT P6SM SCT070 BKN200
     FM250000 22006KT P6SM SCT060 OVC200
     FM251000 VRB03KT P6SM BKN030 OVC200=

USA.gov is the U.S. government's official web portal to all federal, state and local government web resources and services.